Elbe — DANF — position and weather

sailwx.info

Track history (hours):
 
Tides and Currents Weather Stations Pressure Air Temp Water Temp Dewpoint Dewpoint Depression Visibility Wind Speed Wind Dir Waves Ship Positions

Elbe

Last reported at 2018-Sep-06 09:03 UTC. Time now 2019-Sep-15 19:58 UTC.
Position N 54°22' E 007°54'.
Warning: this ship's position is years out of date!

Length 38 m; draft 2.8 m.

Type: Sailing vessel. MMSI: 211407690.

Date/timePositionNaut miles runAvg speedWind from/ knotsBaromVisibWave heightAir tempDewpointWater temp
2018-Sep-06 09:03N 54°22' E 007°54'1 7.3
2018-Sep-06 08:51N 54°21' E 007°54'3 6.5
2018-Sep-06 08:27N 54°18' E 007°55'3 6.3
2018-Sep-06 07:59N 54°15' E 007°56'4 7.1
2018-Sep-06 07:25N 54°11' E 007°56'2 2.9
2018-Sep-06 06:49N 54°10' E 007°54'11 0.6
2018-Sep-05 13:31N 54°04' E 008°10'2 8.2
2018-Sep-05 13:18N 54°03' E 008°12'8 8.3
2018-Sep-05 12:18N 53°60' E 008°25'4 9.3
2018-Sep-05 11:52N 53°58' E 008°32'410.0
2018-Sep-05 11:29N 53°57' E 008°38'510.6
2018-Sep-05 11:03N 53°54' E 008°42'110.6
2018-Sep-05 11:00N 53°53' E 008°43'510.4
2018-Sep-05 10:30N 53°50' E 008°50'510.4
2018-Sep-05 10:03N 53°51' E 008°58'111.4
2018-Sep-05 10:00N 53°51' E 008°59'5 9.5
2018-Sep-05 09:30N 53°53' E 009°07'4 8.5
2018-Sep-05 09:02N 53°53' E 009°13'0 6.1
2018-Sep-05 09:00N 53°53' E 009°14'4 7.6
2018-Sep-05 08:30N 53°51' E 009°19'3 6.9
2018-Sep-05 08:03N 53°49' E 009°22'0 6.4
2018-Sep-05 08:00N 53°48' E 009°23'2 3.4
2018-Sep-05 07:30N 53°47' E 009°25'0 0.0
2018-Sep-05 07:00N 53°47' E 009°25'0 0.0
2018-Sep-05 06:29N 53°47' E 009°25'0 0.0
2018-Sep-05 06:03N 53°47' E 009°25'0 0.0
2018-Sep-05 05:59N 53°47' E 009°25'0 0.0
2018-Sep-05 05:29N 53°47' E 009°25'0 0.0
2018-Sep-05 05:02N 53°47' E 009°25'0 0.0
2018-Sep-05 04:59N 53°47' E 009°25'0 0.0
2018-Sep-05 04:29N 53°47' E 009°25'0 0.0
2018-Sep-05 04:02N 53°47' E 009°25'0 0.0
2018-Sep-05 03:56N 53°47' E 009°25'0 0.0
2018-Sep-05 03:26N 53°47' E 009°25'0 0.0
2018-Sep-05 03:02N 53°47' E 009°25'0 0.0
2018-Sep-05 02:57N 53°47' E 009°25'0 0.0
2018-Sep-05 02:26N 53°47' E 009°25'0 0.0
2018-Sep-05 02:02N 53°47' E 009°25'0 0.0
2018-Sep-05 02:00N 53°47' E 009°25'0 0.0
2018-Sep-05 01:30N 53°47' E 009°25'0 0.0
2018-Sep-05 01:02N 53°47' E 009°25'0 0.0
2018-Sep-05 00:56N 53°47' E 009°25'0 0.0
2018-Sep-05 00:26N 53°47' E 009°25'0 0.0
2018-Sep-05 00:02N 53°47' E 009°25'0 0.0
2018-Sep-05 00:00N 53°47' E 009°25'0 0.0
2018-Sep-04 23:29N 53°47' E 009°25'0 0.0
2018-Sep-04 23:02N 53°47' E 009°25'0 0.0
2018-Sep-04 22:59N 53°47' E 009°25'0 0.0
2018-Sep-04 22:29N 53°47' E 009°25'0 0.0
2018-Sep-04 22:03N 53°47' E 009°25'0 0.0
2018-Sep-04 21:56N 53°47' E 009°25'0 0.0
2018-Sep-04 21:29N 53°47' E 009°25'0 0.0
2018-Sep-04 21:02N 53°47' E 009°25'0 0.0
2018-Sep-04 20:59N 53°47' E 009°25'0 0.0
2018-Sep-04 20:29N 53°47' E 009°25'0 0.0
2018-Sep-04 20:00N 53°47' E 009°25'0 0.0
2018-Sep-04 19:29N 53°47' E 009°25'0 0.0
2018-Sep-04 19:02N 53°47' E 009°25'0 0.0
2018-Sep-04 18:56N 53°47' E 009°25'0 0.0
2018-Sep-04 18:30N 53°47' E 009°25'0 0.0
2018-Sep-04 18:02N 53°47' E 009°25'0 0.0
2018-Sep-04 17:59N 53°47' E 009°25'0 0.0
2018-Sep-04 17:26N 53°47' E 009°25'0 0.0
2018-Sep-04 17:02N 53°47' E 009°25'0 0.0
2018-Sep-04 17:00N 53°47' E 009°25'0 0.0
2018-Sep-04 16:29N 53°47' E 009°25'0 0.0
2018-Sep-04 16:02N 53°47' E 009°25'0 0.0
2018-Sep-04 15:59N 53°47' E 009°25'0 0.0
2018-Sep-04 15:29N 53°47' E 009°25'0 0.0
2018-Sep-04 15:02N 53°47' E 009°25'0 0.0
2018-Sep-04 14:59N 53°47' E 009°25'0 0.0
2018-Sep-04 14:27N 53°47' E 009°25'0 0.0
2018-Sep-04 13:59N 53°47' E 009°25'0 0.0
2018-Sep-04 13:26N 53°47' E 009°25'1 1.3
2018-Sep-04 13:03N 53°47' E 009°24'0 1.6
2018-Sep-04 13:00N 53°47' E 009°24'1 2.3
2018-Sep-04 12:30N 53°46' E 009°24'3 7.3
2018-Sep-04 12:03N 53°44' E 009°27'0 7.8
2018-Sep-04 12:00N 53°44' E 009°28'4 8.1
2018-Sep-04 11:30N 53°40' E 009°31'4 7.8
2018-Sep-04 11:03N 53°37' E 009°34'0 7.9
2018-Sep-04 11:00N 53°37' E 009°34'4 7.7
2018-Sep-04 10:30N 53°34' E 009°40'3 7.3
2018-Sep-04 10:03N 53°34' E 009°45'0 6.5
2018-Sep-04 10:00N 53°34' E 009°46'4 7.4
2018-Sep-04 09:30N 53°33' E 009°52'3 5.8
2018-Sep-04 09:03N 53°33' E 009°56'0 5.5
2018-Sep-04 09:00N 53°33' E 009°56'2 4.6
2018-Sep-04 08:30N 53°32' E 010°00'0 0.1
2018-Sep-04 08:01N 53°32' E 010°00'0 0.0
2018-Sep-04 07:58N 53°32' E 010°00'0 0.0
2018-Sep-04 07:28N 53°32' E 010°00'0 0.0
2018-Sep-04 07:01N 53°32' E 010°00'0 0.0
2018-Sep-04 06:58N 53°32' E 010°00'0 0.0
2018-Sep-04 06:28N 53°32' E 010°00'0 0.0
2018-Sep-04 06:01N 53°32' E 010°00'0 0.0
2018-Sep-04 05:58N 53°32' E 010°00'0 0.0
2018-Sep-04 05:28N 53°32' E 010°00'0 0.0
2018-Sep-04 05:01N 53°32' E 010°00'0 0.1
2018-Sep-04 04:58N 53°32' E 010°00'0 0.0
2018-Sep-04 04:28N 53°32' E 010°00'0 0.0
2018-Sep-04 03:58N 53°32' E 010°00'0 0.0
2018-Sep-04 03:28N 53°32' E 010°00'0 0.0
2018-Sep-04 03:01N 53°32' E 010°00'0 0.0
2018-Sep-04 02:58N 53°32' E 010°00'0 0.0
2018-Sep-04 02:28N 53°32' E 010°00'0 0.0
2018-Sep-04 02:01N 53°32' E 010°00'0 0.1
2018-Sep-04 01:58N 53°32' E 010°00'0 0.0
2018-Sep-04 01:28N 53°32' E 010°00'0 0.0
2018-Sep-04 01:01N 53°32' E 010°00'0 0.0
2018-Sep-04 00:55N 53°32' E 010°00'0 0.0
2018-Sep-04 00:28N 53°32' E 010°00'0 0.0
2018-Sep-04 00:01N 53°32' E 010°00'0 0.1
2018-Sep-03 23:58N 53°32' E 010°00'0 0.0
2018-Sep-03 23:28N 53°32' E 010°00'0 0.0
2018-Sep-03 23:01N 53°32' E 010°00'0 0.0
2018-Sep-03 22:58N 53°32' E 010°00'0 0.0
2018-Sep-03 22:28N 53°32' E 010°00'0 0.0
2018-Sep-03 22:01N 53°32' E 010°00'0 0.0
2018-Sep-03 21:58N 53°32' E 010°00'0 0.0
2018-Sep-03 21:28N 53°32' E 010°00'0 0.0
2018-Sep-03 21:01N 53°32' E 010°00'0 0.1
2018-Sep-03 20:58N 53°32' E 010°00'0 0.0
2018-Sep-03 20:28N 53°32' E 010°00'0 0.0
2018-Sep-03 20:01N 53°32' E 010°00'0 0.0
2018-Sep-03 19:58N 53°32' E 010°00'0 0.0
2018-Sep-03 19:28N 53°32' E 010°00'0 0.0
2018-Sep-03 19:01N 53°32' E 010°00'0 0.0
2018-Sep-03 18:58N 53°32' E 010°00'0 0.0
2018-Sep-03 18:28N 53°32' E 010°00'0 0.0
2018-Sep-03 18:01N 53°32' E 010°00'0 0.0
2018-Sep-03 17:58N 53°32' E 010°00'0 0.0
2018-Sep-03 17:28N 53°32' E 010°00'0 0.0
2018-Sep-03 17:02N 53°32' E 010°00'0 0.1
2018-Sep-03 16:59N 53°32' E 010°00'0 0.0
2018-Sep-03 16:29N 53°32' E 010°00'0 0.0
2018-Sep-03 15:29N 53°32' E 010°00'0 0.0
2018-Sep-03 15:03N 53°32' E 010°00'0 0.0
2018-Sep-03 14:58N 53°32' E 010°00'0 0.0
2018-Sep-03 14:03N 53°32' E 010°00'0 0.0
2018-Sep-03 14:00N 53°32' E 010°00'0 0.0
2018-Sep-03 13:28N 53°32' E 010°00'0 0.0
2018-Sep-03 13:01N 53°32' E 010°00'0 0.0
2018-Sep-03 13:00N 53°32' E 010°00'0 0.0
2018-Sep-03 12:28N 53°32' E 010°00'0 0.0
2018-Sep-03 11:58N 53°32' E 010°00'0 0.0
2018-Sep-03 11:29N 53°32' E 010°00'0 0.0
2018-Sep-03 11:01N 53°32' E 010°00'0 0.0
2018-Sep-03 10:58N 53°32' E 010°00'0 0.0
2018-Sep-03 10:28N 53°32' E 010°00'0 0.0
2018-Sep-03 09:58N 53°32' E 010°00'0 0.0
2018-Sep-03 09:28N 53°32' E 010°00'0 0.0
2018-Sep-03 09:01N 53°32' E 010°00'0 0.0
2018-Sep-03 08:58N 53°32' E 010°00'0 0.0
2018-Sep-03 08:28N 53°32' E 010°00'0 0.0
2018-Sep-03 08:01N 53°32' E 010°00'0 0.0
2018-Sep-03 07:58N 53°32' E 010°00'0 0.0
2018-Sep-03 07:28N 53°32' E 010°00'0 0.0
2018-Sep-03 07:01N 53°32' E 010°00'0 0.0
2018-Sep-03 06:58N 53°32' E 010°00'0 0.0
2018-Sep-03 06:28N 53°32' E 010°00'0 0.0
2018-Sep-03 06:01N 53°32' E 010°00'0 0.1
2018-Sep-03 05:58N 53°32' E 010°00'0 0.0
2018-Sep-03 05:28N 53°32' E 010°00'0 0.0
2018-Sep-03 05:01N 53°32' E 010°00'0 0.0
2018-Sep-03 04:58N 53°32' E 010°00'0 0.0
2018-Sep-03 04:28N 53°32' E 010°00'0 0.0
2018-Sep-03 04:01N 53°32' E 010°00'0 0.1
2018-Sep-03 03:58N 53°32' E 010°00'0 0.0
2018-Sep-03 03:28N 53°32' E 010°00'0 0.0
2018-Sep-03 02:55N 53°32' E 010°00'0 0.0
2018-Sep-03 02:28N 53°32' E 010°00'0 0.0
2018-Sep-03 02:01N 53°32' E 010°00'0 0.1
2018-Sep-03 01:58N 53°32' E 010°00'0 0.0
2018-Sep-03 01:25N 53°32' E 010°00'0 0.0
2018-Sep-03 01:01N 53°32' E 010°00'0 0.1
2018-Sep-03 00:58N 53°32' E 010°00'0 0.0
2018-Sep-03 00:28N 53°32' E 010°00'0 0.0
2018-Sep-03 00:01N 53°32' E 010°00'0 0.1
2018-Sep-02 23:58N 53°32' E 010°00'0 0.0
2018-Sep-02 23:28N 53°32' E 010°00'0 0.0
2018-Sep-02 23:01N 53°32' E 010°00'0 0.0
2018-Sep-02 22:58N 53°32' E 010°00'0 0.0
2018-Sep-02 22:28N 53°32' E 010°00'0 0.0
2018-Sep-02 22:01N 53°32' E 010°00'0 0.0
2018-Sep-02 21:58N 53°32' E 010°00'0 0.0
2018-Sep-02 21:28N 53°32' E 010°00'0 0.0
2018-Sep-02 21:01N 53°32' E 010°00'0 0.0
2018-Sep-02 20:58N 53°32' E 010°00'0 0.0
2018-Sep-02 20:28N 53°32' E 010°00'0 0.0
2018-Sep-02 20:01N 53°32' E 010°00'0 0.1
2018-Sep-02 19:58N 53°32' E 010°00'0 0.0
2018-Sep-02 19:28N 53°32' E 010°00'0 0.0
2018-Sep-02 19:01N 53°32' E 010°00'0 0.1
2018-Sep-02 18:58N 53°32' E 010°00'0 0.0
2018-Sep-02 17:58N 53°32' E 010°00'0 0.0
2018-Sep-02 17:28N 53°32' E 010°00'0 0.0
2018-Sep-02 17:01N 53°32' E 010°00'0 0.1
2018-Sep-02 16:58N 53°32' E 010°00'0 0.0
2018-Sep-02 16:28N 53°32' E 010°00'0 0.0
2018-Sep-02 16:01N 53°32' E 010°00'0 0.0
2018-Sep-02 15:58N 53°32' E 010°00'0 0.0
2018-Sep-02 15:28N 53°32' E 010°00'0 0.0
2018-Sep-02 15:01N 53°32' E 010°00'0 0.0
2018-Sep-02 14:58N 53°32' E 010°00'0 0.0
2018-Sep-02 14:28N 53°32' E 010°00'0 0.0
2018-Sep-02 13:58N 53°32' E 010°00'0 0.0
2018-Sep-02 13:28N 53°32' E 010°00'0 0.0
2018-Sep-02 13:01N 53°32' E 010°00'0 0.0
2018-Sep-02 12:58N 53°32' E 010°00'0 0.0
2018-Sep-02 12:25N 53°32' E 010°00'0 0.0
2018-Sep-02 12:01N 53°32' E 010°00'0 0.0
2018-Sep-02 11:58N 53°32' E 010°00'0 0.0
2018-Sep-02 11:28N 53°32' E 010°00'0 0.0
2018-Sep-02 11:01N 53°32' E 010°00'0 0.0
2018-Sep-02 10:58N 53°32' E 010°00'0 0.0
2018-Sep-02 10:28N 53°32' E 010°00'0 0.0
2018-Sep-02 10:01N 53°32' E 010°00'0 0.0
2018-Sep-02 09:58N 53°32' E 010°00'0 0.0
2018-Sep-02 09:28N 53°32' E 010°00'0 0.0
2018-Sep-02 09:01N 53°32' E 010°00'0 0.0
2018-Sep-02 08:58N 53°32' E 010°00'0 0.0
2018-Sep-02 08:28N 53°32' E 010°00'0 0.0
2018-Sep-02 08:01N 53°32' E 010°00'0 0.0
2018-Sep-02 07:55N 53°32' E 010°00'0 0.0
2018-Sep-02 07:28N 53°32' E 010°00'0 0.0
2018-Sep-02 07:01N 53°32' E 010°00'0 0.0
2018-Sep-02 06:58N 53°32' E 010°00'0 0.0
2018-Sep-02 06:28N 53°32' E 010°00'0 0.0
2018-Sep-02 06:01N 53°32' E 010°00'0 0.1
2018-Sep-02 05:58N 53°32' E 010°00'0 0.0
2018-Sep-02 05:28N 53°32' E 010°00'0 0.0
2018-Sep-02 05:01N 53°32' E 010°00'0 0.1
2018-Sep-02 04:58N 53°32' E 010°00'0 0.0
2018-Sep-02 04:28N 53°32' E 010°00'0 0.0
2018-Sep-02 04:01N 53°32' E 010°00'0 0.0
2018-Sep-02 03:58N 53°32' E 010°00'0 0.0
2018-Sep-02 03:28N 53°32' E 010°00'0 0.0
2018-Sep-02 03:01N 53°32' E 010°00'0 0.0
2018-Sep-02 02:59N 53°32' E 010°00'0 0.0
2018-Sep-02 02:30N 53°32' E 010°00'0 0.0
2018-Sep-02 01:58N 53°32' E 010°00'0 0.0
2018-Sep-02 01:28N 53°32' E 010°00'0 0.0
2018-Sep-02 01:01N 53°32' E 010°00'0 0.0
2018-Sep-02 00:55N 53°32' E 010°00'0 0.0
2018-Sep-02 00:28N 53°32' E 010°00'0 0.0
2018-Sep-02 00:01N 53°32' E 010°00'0 0.1
2018-Sep-01 23:58N 53°32' E 010°00'0 0.0
2018-Sep-01 23:28N 53°32' E 010°00'0 0.0
2018-Sep-01 23:01N 53°32' E 010°00'0 0.0
2018-Sep-01 22:58N 53°32' E 010°00'0 0.0
2018-Sep-01 22:28N 53°32' E 010°00'0 0.0
2018-Sep-01 22:01N 53°32' E 010°00'0 0.0
2018-Sep-01 21:58N 53°32' E 010°00'0 0.0
2018-Sep-01 21:28N 53°32' E 010°00'0 0.0
2018-Sep-01 21:01N 53°32' E 010°00'0 0.0
2018-Sep-01 20:58N 53°32' E 010°00'0 0.0
2018-Sep-01 20:25N 53°32' E 010°00'0 0.0
2018-Sep-01 20:01N 53°32' E 010°00'0 0.0
2018-Sep-01 19:58N 53°32' E 010°00'0 0.0
2018-Sep-01 19:28N 53°32' E 010°00'0 0.0
2018-Sep-01 19:01N 53°32' E 010°00'0 0.1
2018-Sep-01 18:58N 53°32' E 010°00'0 0.0
2018-Sep-01 18:28N 53°32' E 010°00'0 0.0
2018-Sep-01 18:01N 53°32' E 010°00'0 0.0
2018-Sep-01 17:58N 53°32' E 010°00'0 0.0
2018-Sep-01 17:28N 53°32' E 010°00'0 0.0
2018-Sep-01 17:01N 53°32' E 010°00'0 0.0
2018-Sep-01 16:58N 53°32' E 010°00'0 0.0
2018-Sep-01 16:28N 53°32' E 010°00'0 0.0
2018-Sep-01 16:01N 53°32' E 010°00'0 0.0
2018-Sep-01 15:58N 53°32' E 010°00'0 0.0
2018-Sep-01 15:27N 53°32' E 010°00'0 0.0
2018-Sep-01 14:58N 53°32' E 010°00'0 0.0
2018-Sep-01 14:28N 53°32' E 010°00'0 0.0
2018-Sep-01 13:58N 53°32' E 010°00'0 0.0
2018-Sep-01 13:28N 53°32' E 010°00'0 0.0
2018-Sep-01 13:01N 53°32' E 010°00'0 0.0
2018-Sep-01 12:58N 53°32' E 010°00'0 0.0
2018-Sep-01 12:28N 53°32' E 010°00'0 0.0
2018-Sep-01 12:01N 53°32' E 010°00'0 0.0
2018-Sep-01 11:58N 53°32' E 010°00'0 0.0
2018-Sep-01 11:28N 53°32' E 010°00'0 0.0
2018-Sep-01 11:01N 53°32' E 010°00'0 0.1
2018-Sep-01 10:58N 53°32' E 010°00'0 0.0
2018-Sep-01 10:28N 53°32' E 010°00'0 0.0
2018-Sep-01 10:01N 53°32' E 010°00'0 0.0
2018-Sep-01 09:58N 53°32' E 010°00'0 0.0
2018-Sep-01 09:28N 53°32' E 010°00'0 0.0
2018-Sep-01 09:01N 53°32' E 010°00'0 0.0
2018-Sep-01 08:58N 53°32' E 010°00'0 0.0
2018-Sep-01 08:28N 53°32' E 010°00'0 0.0
2018-Sep-01 08:01N 53°32' E 010°00'0 0.0
2018-Sep-01 07:58N 53°32' E 010°00'0 0.0
2018-Sep-01 07:28N 53°32' E 010°00'0 0.0
2018-Sep-01 07:01N 53°32' E 010°00'0 0.0
2018-Sep-01 06:58N 53°32' E 010°00'0 0.0
2018-Sep-01 06:28N 53°32' E 010°00'0 0.0
2018-Sep-01 06:01N 53°32' E 010°00'0 0.0
2018-Sep-01 05:58N 53°32' E 010°00'0 0.0
2018-Sep-01 05:28N 53°32' E 010°00'0 0.0
2018-Sep-01 05:01N 53°32' E 010°00'0 0.1
2018-Sep-01 04:58N 53°32' E 010°00'0 0.0
2018-Sep-01 04:28N 53°32' E 010°00'0 0.0
2018-Sep-01 04:01N 53°32' E 010°00'0 0.1
2018-Sep-01 03:58N 53°32' E 010°00'0 0.0
2018-Sep-01 03:28N 53°32' E 010°00'0 0.0
2018-Sep-01 03:01N 53°32' E 010°00'0 0.0
2018-Sep-01 02:58N 53°32' E 010°00'0 0.0
2018-Sep-01 02:28N 53°32' E 010°00'0 0.0
2018-Sep-01 02:01N 53°32' E 010°00'0 0.0
2018-Sep-01 01:58N 53°32' E 010°00'0 0.0
2018-Sep-01 01:28N 53°32' E 010°00'0 0.0
2018-Sep-01 01:01N 53°32' E 010°00'0 0.1
2018-Sep-01 00:58N 53°32' E 010°00'0 0.0
2018-Sep-01 00:28N 53°32' E 010°00'0 0.0
2018-Sep-01 00:01N 53°32' E 010°00'0 0.1
2018-Aug-31 23:58N 53°32' E 010°00'0 0.0
2018-Aug-31 23:28N 53°32' E 010°00'0 0.0
2018-Aug-31 23:01N 53°32' E 010°00'0 0.0
2018-Aug-31 22:58N 53°32' E 010°00'0 0.0
2018-Aug-31 22:28N 53°32' E 010°00'0 0.0
2018-Aug-31 22:01N 53°32' E 010°00'0 0.1
2018-Aug-31 21:58N 53°32' E 010°00'0 0.0
2018-Aug-31 21:28N 53°32' E 010°00'0 0.0
2018-Aug-31 21:01N 53°32' E 010°00'0 0.0
2018-Aug-31 20:58N 53°32' E 010°00'0 0.0
2018-Aug-31 20:28N 53°32' E 010°00'0 0.0
2018-Aug-31 20:01N 53°32' E 010°00'0 0.1
2018-Aug-31 19:58N 53°32' E 010°00'0 0.0
2018-Aug-31 19:28N 53°32' E 010°00'0 0.0
2018-Aug-31 19:01N 53°32' E 010°00'0 0.0
2018-Aug-31 18:58N 53°32' E 010°00'0 0.0
2018-Aug-31 18:28N 53°32' E 010°00'0 0.0
2018-Aug-31 18:01N 53°32' E 010°00'0 0.0
2018-Aug-31 17:58N 53°32' E 010°00'0 0.0
2018-Aug-31 17:28N 53°32' E 010°00'0 0.0
2018-Aug-31 17:01N 53°32' E 010°00'0 0.0
2018-Aug-31 16:58N 53°32' E 010°00'0 0.0
2018-Aug-31 16:28N 53°32' E 010°00'0 0.0
2018-Aug-31 16:01N 53°32' E 010°00'0 0.1
2018-Aug-31 15:58N 53°32' E 010°00'0 0.0
2018-Aug-31 15:01N 53°32' E 010°00'0 0.1
2018-Aug-31 14:58N 53°32' E 010°00'0 0.0
2018-Aug-31 14:28N 53°32' E 010°00'0 0.0
2018-Aug-31 13:58N 53°32' E 010°00'0 0.0
2018-Aug-31 13:28N 53°32' E 010°00'0 0.0
2018-Aug-31 13:01N 53°32' E 010°00'0 0.0
2018-Aug-31 12:58N 53°32' E 010°00'0 0.0
2018-Aug-31 12:28N 53°32' E 010°00'0 0.0
2018-Aug-31 12:02N 53°32' E 010°00'0 0.1
2018-Aug-31 11:58N 53°32' E 010°00'0 0.0
2018-Aug-31 11:29N 53°32' E 010°00'0 0.0
2018-Aug-31 11:03N 53°32' E 010°00'0 0.1
2018-Aug-31 11:00N 53°32' E 010°00'0 0.0
2018-Aug-31 10:29N 53°32' E 010°00'0 0.0
2018-Aug-31 10:02N 53°32' E 010°00'0 0.0
2018-Aug-31 09:59N 53°32' E 010°00'0 0.0
2018-Aug-31 09:28N 53°32' E 010°00'0 0.0
2018-Aug-31 09:03N 53°32' E 010°00'0 0.0
2018-Aug-31 08:58N 53°32' E 010°00'0 0.0
2018-Aug-31 08:29N 53°32' E 010°00'0 0.0
2018-Aug-31 08:03N 53°32' E 010°00'0 0.0
2018-Aug-31 07:58N 53°32' E 010°00'0 0.0
2018-Aug-31 07:28N 53°32' E 010°00'0 0.0
2018-Aug-31 07:01N 53°32' E 010°00'0 0.0
2018-Aug-31 07:00N 53°32' E 010°00'0 0.0
2018-Aug-31 06:28N 53°32' E 010°00'0 0.0
2018-Aug-31 06:03N 53°32' E 010°00'0 0.0
2018-Aug-31 05:59N 53°32' E 010°00'0 0.0
2018-Aug-31 05:28N 53°32' E 010°00'0 0.0
2018-Aug-31 05:01N 53°32' E 010°00'0 0.0
2018-Aug-31 04:58N 53°32' E 010°00'0 0.0
2018-Aug-31 04:28N 53°32' E 010°00'0 0.0
2018-Aug-31 04:02N 53°32' E 010°00'0 0.0
2018-Aug-31 03:58N 53°32' E 010°00'0 0.0
2018-Aug-31 03:28N 53°32' E 010°00'0 0.0
2018-Aug-31 03:01N 53°32' E 010°00'0 0.0
2018-Aug-31 03:00N 53°32' E 010°00'0 0.0
2018-Aug-31 02:29N 53°32' E 010°00'0 0.0
2018-Aug-31 02:01N 53°32' E 010°00'0 0.1
2018-Aug-31 01:58N 53°32' E 010°00'0 0.0
2018-Aug-31 01:28N 53°32' E 010°00'0 0.0
2018-Aug-31 01:03N 53°32' E 010°00'0 0.0
2018-Aug-31 00:59N 53°32' E 010°00'0 0.0
2018-Aug-31 00:28N 53°32' E 010°00'0 0.0
2018-Aug-31 00:01N 53°32' E 010°00'0 0.1
2018-Aug-30 23:58N 53°32' E 010°00'0 0.0
2018-Aug-30 23:28N 53°32' E 010°00'0 0.0
2018-Aug-30 23:03N 53°32' E 010°00'0 0.0
2018-Aug-30 23:00N 53°32' E 010°00'0 0.0
2018-Aug-30 22:28N 53°32' E 010°00'0 0.0
2018-Aug-30 22:01N 53°32' E 010°00'0 0.0
2018-Aug-30 21:58N 53°32' E 010°00'0 0.0
2018-Aug-30 21:27N 53°32' E 010°00'0 0.0
2018-Aug-30 21:01N 53°32' E 010°00'0 0.3
2018-Aug-30 21:00N 53°32' E 010°00'0 0.0
2018-Aug-30 20:30N 53°32' E 010°00'0 0.0
2018-Aug-30 19:30N 53°32' E 010°00'0 0.0
2018-Aug-30 19:02N 53°32' E 010°00'0 0.0
2018-Aug-30 18:59N 53°32' E 010°00'0 0.0
2018-Aug-30 18:28N 53°32' E 010°00'0 0.0
2018-Aug-30 18:03N 53°32' E 010°00'0 0.0
2018-Aug-30 17:59N 53°32' E 010°00'0 0.0
2018-Aug-30 17:28N 53°32' E 010°00'0 0.0
2018-Aug-30 17:01N 53°32' E 010°00'0 0.0
2018-Aug-30 16:58N 53°32' E 010°00'0 0.0
2018-Aug-30 16:28N 53°32' E 010°00'0 0.0
2018-Aug-30 16:01N 53°32' E 010°00'0 0.1
2018-Aug-30 15:58N 53°32' E 010°00'0 0.0
2018-Aug-30 15:28N 53°32' E 010°00'0 0.0
2018-Aug-30 15:01N 53°32' E 010°00'0 0.0
2018-Aug-30 14:58N 53°32' E 010°00'0 0.0
2018-Aug-30 14:28N 53°32' E 010°00'0 0.0
2018-Aug-30 13:58N 53°32' E 010°00'0 0.0
2018-Aug-30 13:28N 53°32' E 010°00'0 0.0
2018-Aug-30 13:01N 53°32' E 010°00'0 0.0
2018-Aug-30 12:55N 53°32' E 010°00'0 0.0
2018-Aug-30 12:28N 53°32' E 010°00'0 0.0
2018-Aug-30 12:01N 53°32' E 010°00'0 0.0
2018-Aug-30 11:58N 53°32' E 010°00'0 0.0
2018-Aug-30 11:28N 53°32' E 010°00'0 0.0
2018-Aug-30 11:01N 53°32' E 010°00'0 0.0
2018-Aug-30 10:58N 53°32' E 010°00'0 0.0
2018-Aug-30 10:28N 53°32' E 010°00'0 0.0
2018-Aug-30 10:01N 53°32' E 010°00'0 0.0
2018-Aug-30 09:58N 53°32' E 010°00'0 0.0
2018-Aug-30 09:28N 53°32' E 010°00'0 0.0
2018-Aug-30 09:01N 53°32' E 010°00'0 0.0
2018-Aug-30 08:58N 53°32' E 010°00'0 0.0
2018-Aug-30 08:28N 53°32' E 010°00'0 0.0
2018-Aug-30 08:01N 53°32' E 010°00'0 0.1
2018-Aug-30 07:58N 53°32' E 010°00'1 2.5
2018-Aug-30 07:31N 53°32' E 009°59'0 0.9
2018-Aug-30 07:03N 53°33' E 009°59'0 0.0
2018-Aug-30 07:00N 53°33' E 009°59'0 0.0
2018-Aug-30 06:27N 53°33' E 009°59'0 0.0
2018-Aug-30 06:03N 53°33' E 009°59'0 0.0
2018-Aug-30 05:57N 53°33' E 009°59'0 0.0
2018-Aug-30 05:30N 53°33' E 009°59'0 0.0
2018-Aug-30 05:03N 53°33' E 009°59'0 0.0
2018-Aug-30 05:00N 53°33' E 009°59'0 0.0
2018-Aug-30 04:27N 53°33' E 009°59'0 0.0
2018-Aug-30 04:03N 53°33' E 009°59'0 0.0
2018-Aug-30 04:00N 53°33' E 009°59'0 0.0
2018-Aug-30 03:30N 53°33' E 009°59'0 0.0
2018-Aug-30 03:03N 53°33' E 009°59'0 0.0
2018-Aug-30 03:00N 53°33' E 009°59'0 0.0
2018-Aug-30 02:30N 53°33' E 009°59'0 0.0
2018-Aug-30 02:03N 53°33' E 009°59'0 0.0
2018-Aug-30 02:00N 53°33' E 009°59'0 0.0
2018-Aug-30 01:30N 53°33' E 009°59'0 0.0
2018-Aug-30 01:03N 53°33' E 009°59'0 0.0
2018-Aug-30 01:00N 53°33' E 009°59'0 0.0
2018-Aug-30 00:30N 53°33' E 009°59'0 0.0
2018-Aug-30 00:03N 53°33' E 009°59'0 0.1
2018-Aug-30 00:00N 53°33' E 009°59'0 0.0
2018-Aug-29 23:30N 53°33' E 009°59'0 0.0
2018-Aug-29 23:03N 53°33' E 009°59'0 0.0
2018-Aug-29 23:00N 53°33' E 009°59'0 0.0
2018-Aug-29 22:30N 53°33' E 009°59'0 0.0
2018-Aug-29 22:03N 53°33' E 009°59'0 0.1
2018-Aug-29 22:00N 53°33' E 009°59'0 0.0
2018-Aug-29 21:25N 53°33' E 009°59'0 0.0
2018-Aug-29 21:01N 53°33' E 009°59'0 0.0
2018-Aug-29 20:58N 53°33' E 009°59'0 0.0
2018-Aug-29 20:28N 53°33' E 009°59'0 0.0
2018-Aug-29 20:01N 53°33' E 009°59'0 0.1
2018-Aug-29 19:58N 53°33' E 009°59'0 0.0
2018-Aug-29 19:28N 53°33' E 009°59'0 0.0
2018-Aug-29 19:01N 53°33' E 009°59'0 0.1
2018-Aug-29 18:58N 53°33' E 009°59'0 0.1
2018-Aug-29 18:28N 53°33' E 009°59'0 0.1
2018-Aug-29 18:01N 53°33' E 009°59'0 0.1
2018-Aug-29 17:58N 53°33' E 009°59'0 0.0
2018-Aug-29 17:22N 53°33' E 009°59'0 0.0
2018-Aug-29 17:01N 53°33' E 009°59'0 0.0
2018-Aug-29 16:58N 53°33' E 009°59'0 0.0
2018-Aug-29 16:25N 53°33' E 009°59'0 0.0
2018-Aug-29 16:01N 53°33' E 009°59'0 0.0
2018-Aug-29 15:58N 53°33' E 009°59'0 0.0
2018-Aug-29 15:28N 53°33' E 009°59'0 0.0
2018-Aug-29 15:01N 53°33' E 009°59'0 0.0
2018-Aug-29 14:58N 53°33' E 009°59'0 0.0
2018-Aug-29 13:58N 53°33' E 009°59'0 0.0
2018-Aug-29 13:28N 53°33' E 009°59'0 0.0
2018-Aug-29 13:01N 53°33' E 009°59'0 0.0
2018-Aug-29 12:58N 53°33' E 009°59'0 0.0
2018-Aug-29 12:28N 53°33' E 009°59'0 0.0
2018-Aug-29 12:01N 53°33' E 009°59'0 0.0
2018-Aug-29 11:58N 53°33' E 009°59'0 0.0
2018-Aug-29 11:28N 53°33' E 009°59'0 0.0
2018-Aug-29 11:01N 53°33' E 009°59'0 0.0
2018-Aug-29 10:58N 53°33' E 009°59'0 0.1
2018-Aug-29 10:28N 53°33' E 009°59'0 0.1
2018-Aug-29 10:01N 53°33' E 009°59'0 0.0
2018-Aug-29 09:55N 53°33' E 009°59'0 0.0
2018-Aug-29 09:28N 53°33' E 009°59'0 0.0
2018-Aug-29 09:01N 53°33' E 009°59'0 0.0
2018-Aug-29 08:55N 53°33' E 009°59'0 0.0
2018-Aug-29 08:28N 53°33' E 009°59'0 0.0
2018-Aug-29 08:01N 53°33' E 009°59'0 0.0
2018-Aug-29 07:58N 53°33' E 009°59'0 0.0
2018-Aug-29 07:28N 53°33' E 009°59'0 0.0
2018-Aug-29 07:01N 53°33' E 009°59'0 0.1
2018-Aug-29 06:58N 53°33' E 009°59'0 0.0
2018-Aug-29 06:28N 53°33' E 009°59'0 0.0
2018-Aug-29 06:01N 53°33' E 009°59'0 0.0
2018-Aug-29 05:58N 53°33' E 009°59'0 0.0
2018-Aug-29 05:28N 53°33' E 009°59'0 0.0
2018-Aug-29 05:01N 53°33' E 009°59'0 0.1
2018-Aug-29 04:58N 53°33' E 009°59'0 0.0
2018-Aug-29 04:28N 53°33' E 009°59'0 0.0
2018-Aug-29 04:01N 53°33' E 009°59'0 0.0
2018-Aug-29 03:58N 53°33' E 009°59'0 0.0
2018-Aug-29 03:28N 53°33' E 009°59'0 0.0
2018-Aug-29 03:01N 53°33' E 009°59'0 0.0
2018-Aug-29 02:58N 53°33' E 009°59'0 0.0
2018-Aug-29 02:28N 53°33' E 009°59'0 0.0
2018-Aug-29 02:01N 53°33' E 009°59'0 0.0
2018-Aug-29 01:58N 53°33' E 009°59'0 0.0
2018-Aug-29 01:28N 53°33' E 009°59'0 0.0
2018-Aug-29 01:01N 53°33' E 009°59'0 0.0
2018-Aug-29 00:58N 53°33' E 009°59'0 0.0
2018-Aug-29 00:28N 53°33' E 009°59'0 0.0
2018-Aug-29 00:01N 53°33' E 009°59'0 0.1
2018-Aug-28 23:58N 53°33' E 009°59'0 0.0
2018-Aug-28 23:28N 53°33' E 009°59'0 0.0
2018-Aug-28 23:01N 53°33' E 009°59'0 0.1
2018-Aug-28 22:58N 53°33' E 009°59'0 0.0
2018-Aug-28 22:25N 53°33' E 009°59'0 0.0
2018-Aug-28 22:01N 53°33' E 009°59'0 0.0
2018-Aug-28 21:58N 53°33' E 009°59'0 0.0
2018-Aug-28 21:29N 53°33' E 009°59'0 0.0
2018-Aug-28 21:02N 53°33' E 009°59'0 0.0
2018-Aug-28 20:59N 53°33' E 009°59'0 0.0
2018-Aug-28 20:29N 53°33' E 009°59'0 0.0
2018-Aug-28 20:02N 53°33' E 009°59'0 0.0
2018-Aug-28 19:59N 53°33' E 009°59'0 0.0
2018-Aug-28 19:29N 53°33' E 009°59'0 0.0
2018-Aug-28 19:02N 53°33' E 009°59'0 0.0
2018-Aug-28 18:59N 53°33' E 009°59'0 0.0
2018-Aug-28 18:29N 53°33' E 009°59'0 0.0
2018-Aug-28 18:02N 53°33' E 009°59'0 0.1
2018-Aug-28 17:59N 53°33' E 009°59'0 0.0
2018-Aug-28 17:29N 53°33' E 009°59'0 0.0
2018-Aug-28 17:02N 53°33' E 009°59'0 0.0
2018-Aug-28 16:59N 53°33' E 009°59'0 0.0
2018-Aug-28 16:29N 53°33' E 009°59'0 0.0
2018-Aug-28 16:02N 53°33' E 009°59'0 0.1
2018-Aug-28 15:59N 53°33' E 009°59'0 0.0
2018-Aug-28 15:29N 53°33' E 009°59'0 0.0
2018-Aug-28 15:02N 53°33' E 009°59'0 0.0
2018-Aug-28 14:59N 53°33' E 009°59'0 0.0
2018-Aug-28 14:29N 53°33' E 009°59'0 0.0
2018-Aug-28 13:29N 53°33' E 009°59'0 0.0
2018-Aug-28 13:02N 53°33' E 009°59'0 0.0
2018-Aug-28 12:59N 53°33' E 009°59'0 0.0
2018-Aug-28 12:29N 53°33' E 009°59'0 0.0
2018-Aug-28 12:02N 53°33' E 009°59'0 0.0
2018-Aug-28 11:59N 53°33' E 009°59'0 0.0
2018-Aug-28 11:29N 53°33' E 009°59'0 0.0
2018-Aug-28 11:02N 53°33' E 009°59'0 0.0
2018-Aug-28 10:59N 53°33' E 009°59'0 0.0
2018-Aug-28 10:29N 53°33' E 009°59'0 0.0
2018-Aug-28 10:02N 53°33' E 009°59'0 0.0
2018-Aug-28 09:59N 53°33' E 009°59'0 0.0
2018-Aug-28 09:29N 53°33' E 009°59'0 0.0
2018-Aug-28 09:02N 53°33' E 009°59'0 0.1
2018-Aug-28 08:56N 53°33' E 009°59'0 0.0
2018-Aug-28 08:29N 53°33' E 009°59'0 0.0
2018-Aug-28 08:03N 53°33' E 009°59'0 0.0
2018-Aug-28 08:01N 53°33' E 009°59'0 0.0
2018-Aug-28 07:31N 53°33' E 009°59'0 0.0
2018-Aug-28 07:04N 53°33' E 009°59'0 0.0
2018-Aug-28 07:01N 53°33' E 009°59'0 0.0
2018-Aug-28 06:30N 53°33' E 009°59'0 0.0
2018-Aug-28 06:03N 53°33' E 009°59'0 0.0
2018-Aug-28 06:01N 53°33' E 009°59'0 0.0
2018-Aug-28 05:30N 53°33' E 009°59'0 0.0
2018-Aug-28 05:04N 53°33' E 009°59'0 0.0
2018-Aug-28 05:01N 53°33' E 009°59'0 0.0
2018-Aug-28 04:31N 53°33' E 009°59'0 0.0
2018-Aug-28 04:03N 53°33' E 009°59'0 0.0
2018-Aug-28 04:01N 53°33' E 009°59'0 0.0
2018-Aug-28 03:31N 53°33' E 009°59'0 0.0
2018-Aug-28 03:04N 53°33' E 009°59'0 0.1
2018-Aug-28 03:01N 53°33' E 009°59'0 0.0
2018-Aug-28 02:31N 53°33' E 009°59'0 0.0
2018-Aug-28 02:04N 53°33' E 009°59'0 0.1
2018-Aug-28 02:00N 53°33' E 009°59'0 0.0
2018-Aug-28 01:31N 53°33' E 009°59'0 0.0
2018-Aug-28 01:03N 53°33' E 009°59'0 0.0
2018-Aug-28 01:00N 53°33' E 009°59'0 0.0
2018-Aug-28 00:31N 53°33' E 009°59'0 0.0
2018-Aug-28 00:03N 53°33' E 009°59'0 0.1
2018-Aug-28 00:01N 53°33' E 009°59'0 0.0
2018-Aug-27 23:31N 53°33' E 009°59'0 0.0
2018-Aug-27 23:04N 53°33' E 009°59'0 0.0
2018-Aug-27 23:01N 53°33' E 009°59'0 0.0
2018-Aug-27 22:31N 53°33' E 009°59'0 0.0
2018-Aug-27 22:04N 53°33' E 009°59'0 0.0
2018-Aug-27 22:01N 53°33' E 009°59'0 0.0
2018-Aug-27 21:30N 53°33' E 009°59'0 0.0
2018-Aug-27 21:04N 53°33' E 009°59'0 0.0
2018-Aug-27 21:00N 53°33' E 009°59'0 0.0
2018-Aug-27 20:30N 53°33' E 009°59'0 0.0
2018-Aug-27 20:03N 53°33' E 009°59'0 0.1
2018-Aug-27 20:01N 53°33' E 009°59'0 0.0
2018-Aug-27 19:30N 53°33' E 009°59'0 0.0
2018-Aug-27 19:04N 53°33' E 009°59'0 0.1
2018-Aug-27 19:01N 53°33' E 009°59'0 0.0
2018-Aug-27 18:30N 53°33' E 009°59'0 0.0
2018-Aug-27 18:04N 53°33' E 009°59'0 0.0
2018-Aug-27 18:01N 53°33' E 009°59'0 0.0
2018-Aug-27 17:31N 53°33' E 009°59'0 0.0
2018-Aug-27 17:04N 53°33' E 009°59'0 0.0
2018-Aug-27 17:01N 53°33' E 009°59'0 0.0
2018-Aug-27 16:31N 53°33' E 009°59'0 0.0
2018-Aug-27 16:03N 53°33' E 009°59'0 0.1
2018-Aug-27 16:01N 53°33' E 009°59'0 0.0
2018-Aug-27 15:30N 53°33' E 009°59'0 0.8
2018-Aug-27 15:04N 53°32' E 009°59'2 3.7
2018-Aug-27 14:31N 53°32' E 009°55'5 4.6
2018-Aug-27 13:31N 53°33' E 009°48'2 4.7
2018-Aug-27 13:03N 53°34' E 009°44'0 4.1
2018-Aug-27 13:01N 53°34' E 009°44'2 4.8
2018-Aug-27 12:31N 53°34' E 009°40'1 1.6
2018-Aug-27 12:03N 53°34' E 009°39'0 3.2
2018-Aug-27 12:00N 53°34' E 009°39'2 3.6
2018-Aug-27 11:31N 53°34' E 009°42'1 3.3
2018-Aug-27 11:04N 53°34' E 009°45'0 3.8
2018-Aug-27 11:01N 53°34' E 009°45'2 4.3
2018-Aug-27 10:31N 53°33' E 009°49'2 5.5
2018-Aug-27 10:04N 53°33' E 009°52'0 5.3
2018-Aug-27 10:01N 53°33' E 009°53'3 5.4
2018-Aug-27 09:31N 53°33' E 009°58'1 2.6
2018-Aug-27 09:04N 53°33' E 009°59'  
Track history (hours):
 
Tides and Currents Weather Stations Pressure Air Temp Water Temp Dewpoint Dewpoint Depression Visibility Wind Speed Wind Dir Waves Ship Positions

Elbe

Last reported at 2018-Sep-06 09:03 UTC. Time now 2019-Sep-15 19:58 UTC.
Position N 54°22' E 007°54'.
Warning: this ship's position is years out of date!

Length 38 m; draft 2.8 m.

Type: Sailing vessel. MMSI: 211407690.

Date/timePositionNaut miles runAvg speedWind from/ knotsBaromVisibWave heightAir tempDewpointWater temp
2018-Sep-06 09:03N 54°22' E 007°54'1 7.3
2018-Sep-06 08:51N 54°21' E 007°54'3 6.5
2018-Sep-06 08:27N 54°18' E 007°55'3 6.3
2018-Sep-06 07:59N 54°15' E 007°56'4 7.1
2018-Sep-06 07:25N 54°11' E 007°56'2 2.9
2018-Sep-06 06:49N 54°10' E 007°54'11 0.6
2018-Sep-05 13:31N 54°04' E 008°10'2 8.2
2018-Sep-05 13:18N 54°03' E 008°12'8 8.3
2018-Sep-05 12:18N 53°60' E 008°25'4 9.3
2018-Sep-05 11:52N 53°58' E 008°32'410.0
2018-Sep-05 11:29N 53°57' E 008°38'510.6
2018-Sep-05 11:03N 53°54' E 008°42'110.6
2018-Sep-05 11:00N 53°53' E 008°43'510.4
2018-Sep-05 10:30N 53°50' E 008°50'510.4
2018-Sep-05 10:03N 53°51' E 008°58'111.4
2018-Sep-05 10:00N 53°51' E 008°59'5 9.5
2018-Sep-05 09:30N 53°53' E 009°07'4 8.5
2018-Sep-05 09:02N 53°53' E 009°13'0 6.1
2018-Sep-05 09:00N 53°53' E 009°14'4 7.6
2018-Sep-05 08:30N 53°51' E 009°19'3 6.9
2018-Sep-05 08:03N 53°49' E 009°22'0 6.4
2018-Sep-05 08:00N 53°48' E 009°23'2 3.4
2018-Sep-05 07:30N 53°47' E 009°25'0 0.0
2018-Sep-05 07:00N 53°47' E 009°25'0 0.0
2018-Sep-05 06:29N 53°47' E 009°25'0 0.0
2018-Sep-05 06:03N 53°47' E 009°25'0 0.0
2018-Sep-05 05:59N 53°47' E 009°25'0 0.0
2018-Sep-05 05:29N 53°47' E 009°25'0 0.0
2018-Sep-05 05:02N 53°47' E 009°25'0 0.0
2018-Sep-05 04:59N 53°47' E 009°25'0 0.0
2018-Sep-05 04:29N 53°47' E 009°25'0 0.0
2018-Sep-05 04:02N 53°47' E 009°25'0 0.0
2018-Sep-05 03:56N 53°47' E 009°25'0 0.0
2018-Sep-05 03:26N 53°47' E 009°25'0 0.0
2018-Sep-05 03:02N 53°47' E 009°25'0 0.0
2018-Sep-05 02:57N 53°47' E 009°25'0 0.0
2018-Sep-05 02:26N 53°47' E 009°25'0 0.0
2018-Sep-05 02:02N 53°47' E 009°25'0 0.0
2018-Sep-05 02:00N 53°47' E 009°25'0 0.0
2018-Sep-05 01:30N 53°47' E 009°25'0 0.0
2018-Sep-05 01:02N 53°47' E 009°25'0 0.0
2018-Sep-05 00:56N 53°47' E 009°25'0 0.0
2018-Sep-05 00:26N 53°47' E 009°25'0 0.0
2018-Sep-05 00:02N 53°47' E 009°25'0 0.0
2018-Sep-05 00:00N 53°47' E 009°25'0 0.0
2018-Sep-04 23:29N 53°47' E 009°25'0 0.0
2018-Sep-04 23:02N 53°47' E 009°25'0 0.0
2018-Sep-04 22:59N 53°47' E 009°25'0 0.0
2018-Sep-04 22:29N 53°47' E 009°25'0 0.0
2018-Sep-04 22:03N 53°47' E 009°25'0 0.0
2018-Sep-04 21:56N 53°47' E 009°25'0 0.0
2018-Sep-04 21:29N 53°47' E 009°25'0 0.0
2018-Sep-04 21:02N 53°47' E 009°25'0 0.0
2018-Sep-04 20:59N 53°47' E 009°25'0 0.0
2018-Sep-04 20:29N 53°47' E 009°25'0 0.0
2018-Sep-04 20:00N 53°47' E 009°25'0 0.0
2018-Sep-04 19:29N 53°47' E 009°25'0 0.0
2018-Sep-04 19:02N 53°47' E 009°25'0 0.0
2018-Sep-04 18:56N 53°47' E 009°25'0 0.0
2018-Sep-04 18:30N 53°47' E 009°25'0 0.0
2018-Sep-04 18:02N 53°47' E 009°25'0 0.0
2018-Sep-04 17:59N 53°47' E 009°25'0 0.0
2018-Sep-04 17:26N 53°47' E 009°25'0 0.0
2018-Sep-04 17:02N 53°47' E 009°25'0 0.0
2018-Sep-04 17:00N 53°47' E 009°25'0 0.0
2018-Sep-04 16:29N 53°47' E 009°25'0 0.0
2018-Sep-04 16:02N 53°47' E 009°25'0 0.0
2018-Sep-04 15:59N 53°47' E 009°25'0 0.0
2018-Sep-04 15:29N 53°47' E 009°25'0 0.0
2018-Sep-04 15:02N 53°47' E 009°25'0 0.0
2018-Sep-04 14:59N 53°47' E 009°25'0 0.0
2018-Sep-04 14:27N 53°47' E 009°25'0 0.0
2018-Sep-04 13:59N 53°47' E 009°25'0 0.0
2018-Sep-04 13:26N 53°47' E 009°25'1 1.3
2018-Sep-04 13:03N 53°47' E 009°24'0 1.6
2018-Sep-04 13:00N 53°47' E 009°24'1 2.3
2018-Sep-04 12:30N 53°46' E 009°24'3 7.3
2018-Sep-04 12:03N 53°44' E 009°27'0 7.8
2018-Sep-04 12:00N 53°44' E 009°28'4 8.1
2018-Sep-04 11:30N 53°40' E 009°31'4 7.8
2018-Sep-04 11:03N 53°37' E 009°34'0 7.9
2018-Sep-04 11:00N 53°37' E 009°34'4 7.7
2018-Sep-04 10:30N 53°34' E 009°40'3 7.3
2018-Sep-04 10:03N 53°34' E 009°45'0 6.5
2018-Sep-04 10:00N 53°34' E 009°46'4 7.4
2018-Sep-04 09:30N 53°33' E 009°52'3 5.8
2018-Sep-04 09:03N 53°33' E 009°56'0 5.5
2018-Sep-04 09:00N 53°33' E 009°56'2 4.6
2018-Sep-04 08:30N 53°32' E 010°00'0 0.1
2018-Sep-04 08:01N 53°32' E 010°00'0 0.0
2018-Sep-04 07:58N 53°32' E 010°00'0 0.0
2018-Sep-04 07:28N 53°32' E 010°00'0 0.0
2018-Sep-04 07:01N 53°32' E 010°00'0 0.0
2018-Sep-04 06:58N 53°32' E 010°00'0 0.0
2018-Sep-04 06:28N 53°32' E 010°00'0 0.0
2018-Sep-04 06:01N 53°32' E 010°00'0 0.0
2018-Sep-04 05:58N 53°32' E 010°00'0 0.0
2018-Sep-04 05:28N 53°32' E 010°00'0 0.0
2018-Sep-04 05:01N 53°32' E 010°00'0 0.1
2018-Sep-04 04:58N 53°32' E 010°00'0 0.0
2018-Sep-04 04:28N 53°32' E 010°00'0 0.0
2018-Sep-04 03:58N 53°32' E 010°00'0 0.0
2018-Sep-04 03:28N 53°32' E 010°00'0 0.0
2018-Sep-04 03:01N 53°32' E 010°00'0 0.0
2018-Sep-04 02:58N 53°32' E 010°00'0 0.0
2018-Sep-04 02:28N 53°32' E 010°00'0 0.0
2018-Sep-04 02:01N 53°32' E 010°00'0 0.1
2018-Sep-04 01:58N 53°32' E 010°00'0 0.0
2018-Sep-04 01:28N 53°32' E 010°00'0 0.0
2018-Sep-04 01:01N 53°32' E 010°00'0 0.0
2018-Sep-04 00:55N 53°32' E 010°00'0 0.0
2018-Sep-04 00:28N 53°32' E 010°00'0 0.0
2018-Sep-04 00:01N 53°32' E 010°00'0 0.1
2018-Sep-03 23:58N 53°32' E 010°00'0 0.0
2018-Sep-03 23:28N 53°32' E 010°00'0 0.0
2018-Sep-03 23:01N 53°32' E 010°00'0 0.0
2018-Sep-03 22:58N 53°32' E 010°00'0 0.0
2018-Sep-03 22:28N 53°32' E 010°00'0 0.0
2018-Sep-03 22:01N 53°32' E 010°00'0 0.0
2018-Sep-03 21:58N 53°32' E 010°00'0 0.0
2018-Sep-03 21:28N 53°32' E 010°00'0 0.0
2018-Sep-03 21:01N 53°32' E 010°00'0 0.1
2018-Sep-03 20:58N 53°32' E 010°00'0 0.0
2018-Sep-03 20:28N 53°32' E 010°00'0 0.0
2018-Sep-03 20:01N 53°32' E 010°00'0 0.0
2018-Sep-03 19:58N 53°32' E 010°00'0 0.0
2018-Sep-03 19:28N 53°32' E 010°00'0 0.0
2018-Sep-03 19:01N 53°32' E 010°00'0 0.0
2018-Sep-03 18:58N 53°32' E 010°00'0 0.0
2018-Sep-03 18:28N 53°32' E 010°00'0 0.0
2018-Sep-03 18:01N 53°32' E 010°00'0 0.0
2018-Sep-03 17:58N 53°32' E 010°00'0 0.0
2018-Sep-03 17:28N 53°32' E 010°00'0 0.0
2018-Sep-03 17:02N 53°32' E 010°00'0 0.1
2018-Sep-03 16:59N 53°32' E 010°00'0 0.0
2018-Sep-03 16:29N 53°32' E 010°00'0 0.0
2018-Sep-03 15:29N 53°32' E 010°00'0 0.0
2018-Sep-03 15:03N 53°32' E 010°00'0 0.0
2018-Sep-03 14:58N 53°32' E 010°00'0 0.0
2018-Sep-03 14:03N 53°32' E 010°00'0 0.0
2018-Sep-03 14:00N 53°32' E 010°00'0 0.0
2018-Sep-03 13:28N 53°32' E 010°00'0 0.0
2018-Sep-03 13:01N 53°32' E 010°00'0 0.0
2018-Sep-03 13:00N 53°32' E 010°00'0 0.0
2018-Sep-03 12:28N 53°32' E 010°00'0 0.0
2018-Sep-03 11:58N 53°32' E 010°00'0 0.0
2018-Sep-03 11:29N 53°32' E 010°00'0 0.0
2018-Sep-03 11:01N 53°32' E 010°00'0 0.0
2018-Sep-03 10:58N 53°32' E 010°00'0 0.0
2018-Sep-03 10:28N 53°32' E 010°00'0 0.0
2018-Sep-03 09:58N 53°32' E 010°00'0 0.0
2018-Sep-03 09:28N 53°32' E 010°00'0 0.0
2018-Sep-03 09:01N 53°32' E 010°00'0 0.0
2018-Sep-03 08:58N 53°32' E 010°00'0 0.0
2018-Sep-03 08:28N 53°32' E 010°00'0 0.0
2018-Sep-03 08:01N 53°32' E 010°00'0 0.0
2018-Sep-03 07:58N 53°32' E 010°00'0 0.0
2018-Sep-03 07:28N 53°32' E 010°00'0 0.0
2018-Sep-03 07:01N 53°32' E 010°00'0 0.0
2018-Sep-03 06:58N 53°32' E 010°00'0 0.0
2018-Sep-03 06:28N 53°32' E 010°00'0 0.0
2018-Sep-03 06:01N 53°32' E 010°00'0 0.1
2018-Sep-03 05:58N 53°32' E 010°00'0 0.0
2018-Sep-03 05:28N 53°32' E 010°00'0 0.0
2018-Sep-03 05:01N 53°32' E 010°00'0 0.0
2018-Sep-03 04:58N 53°32' E 010°00'0 0.0
2018-Sep-03 04:28N 53°32' E 010°00'0 0.0
2018-Sep-03 04:01N 53°32' E 010°00'0 0.1
2018-Sep-03 03:58N 53°32' E 010°00'0 0.0
2018-Sep-03 03:28N 53°32' E 010°00'0 0.0
2018-Sep-03 02:55N 53°32' E 010°00'0 0.0
2018-Sep-03 02:28N 53°32' E 010°00'0 0.0
2018-Sep-03 02:01N 53°32' E 010°00'0 0.1
2018-Sep-03 01:58N 53°32' E 010°00'0 0.0
2018-Sep-03 01:25N 53°32' E 010°00'0 0.0
2018-Sep-03 01:01N 53°32' E 010°00'0 0.1
2018-Sep-03 00:58N 53°32' E 010°00'0 0.0
2018-Sep-03 00:28N 53°32' E 010°00'0 0.0
2018-Sep-03 00:01N 53°32' E 010°00'0 0.1
2018-Sep-02 23:58N 53°32' E 010°00'0 0.0
2018-Sep-02 23:28N 53°32' E 010°00'0 0.0
2018-Sep-02 23:01N 53°32' E 010°00'0 0.0
2018-Sep-02 22:58N 53°32' E 010°00'0 0.0
2018-Sep-02 22:28N 53°32' E 010°00'0 0.0
2018-Sep-02 22:01N 53°32' E 010°00'0 0.0
2018-Sep-02 21:58N 53°32' E 010°00'0 0.0
2018-Sep-02 21:28N 53°32' E 010°00'0 0.0
2018-Sep-02 21:01N 53°32' E 010°00'0 0.0
2018-Sep-02 20:58N 53°32' E 010°00'0 0.0
2018-Sep-02 20:28N 53°32' E 010°00'0 0.0
2018-Sep-02 20:01N 53°32' E 010°00'0 0.1
2018-Sep-02 19:58N 53°32' E 010°00'0 0.0
2018-Sep-02 19:28N 53°32' E 010°00'0 0.0
2018-Sep-02 19:01N 53°32' E 010°00'0 0.1
2018-Sep-02 18:58N 53°32' E 010°00'0 0.0
2018-Sep-02 17:58N 53°32' E 010°00'0 0.0
2018-Sep-02 17:28N 53°32' E 010°00'0 0.0
2018-Sep-02 17:01N 53°32' E 010°00'0 0.1
2018-Sep-02 16:58N 53°32' E 010°00'0 0.0
2018-Sep-02 16:28N 53°32' E 010°00'0 0.0
2018-Sep-02 16:01N 53°32' E 010°00'0 0.0
2018-Sep-02 15:58N 53°32' E 010°00'0 0.0
2018-Sep-02 15:28N 53°32' E 010°00'0 0.0
2018-Sep-02 15:01N 53°32' E 010°00'0 0.0
2018-Sep-02 14:58N 53°32' E 010°00'0 0.0
2018-Sep-02 14:28N 53°32' E 010°00'0 0.0
2018-Sep-02 13:58N 53°32' E 010°00'0 0.0
2018-Sep-02 13:28N 53°32' E 010°00'0 0.0
2018-Sep-02 13:01N 53°32' E 010°00'0 0.0
2018-Sep-02 12:58N 53°32' E 010°00'0 0.0
2018-Sep-02 12:25N 53°32' E 010°00'0 0.0
2018-Sep-02 12:01N 53°32' E 010°00'0 0.0
2018-Sep-02 11:58N 53°32' E 010°00'0 0.0
2018-Sep-02 11:28N 53°32' E 010°00'0 0.0
2018-Sep-02 11:01N 53°32' E 010°00'0 0.0
2018-Sep-02 10:58N 53°32' E 010°00'0 0.0
2018-Sep-02 10:28N 53°32' E 010°00'0 0.0
2018-Sep-02 10:01N 53°32' E 010°00'0 0.0
2018-Sep-02 09:58N 53°32' E 010°00'0 0.0
2018-Sep-02 09:28N 53°32' E 010°00'0 0.0
2018-Sep-02 09:01N 53°32' E 010°00'0 0.0
2018-Sep-02 08:58N 53°32' E 010°00'0 0.0
2018-Sep-02 08:28N 53°32' E 010°00'0 0.0
2018-Sep-02 08:01N 53°32' E 010°00'0 0.0
2018-Sep-02 07:55N 53°32' E 010°00'0 0.0
2018-Sep-02 07:28N 53°32' E 010°00'0 0.0
2018-Sep-02 07:01N 53°32' E 010°00'0 0.0
2018-Sep-02 06:58N 53°32' E 010°00'0 0.0
2018-Sep-02 06:28N 53°32' E 010°00'0 0.0
2018-Sep-02 06:01N 53°32' E 010°00'0 0.1
2018-Sep-02 05:58N 53°32' E 010°00'0 0.0
2018-Sep-02 05:28N 53°32' E 010°00'0 0.0
2018-Sep-02 05:01N 53°32' E 010°00'0 0.1
2018-Sep-02 04:58N 53°32' E 010°00'0 0.0
2018-Sep-02 04:28N 53°32' E 010°00'0 0.0
2018-Sep-02 04:01N 53°32' E 010°00'0 0.0
2018-Sep-02 03:58N 53°32' E 010°00'0 0.0
2018-Sep-02 03:28N 53°32' E 010°00'0 0.0
2018-Sep-02 03:01N 53°32' E 010°00'0 0.0
2018-Sep-02 02:59N 53°32' E 010°00'0 0.0
2018-Sep-02 02:30N 53°32' E 010°00'0 0.0
2018-Sep-02 01:58N 53°32' E 010°00'0 0.0
2018-Sep-02 01:28N 53°32' E 010°00'0 0.0
2018-Sep-02 01:01N 53°32' E 010°00'0 0.0
2018-Sep-02 00:55N 53°32' E 010°00'0 0.0
2018-Sep-02 00:28N 53°32' E 010°00'0 0.0
2018-Sep-02 00:01N 53°32' E 010°00'0 0.1
2018-Sep-01 23:58N 53°32' E 010°00'0 0.0
2018-Sep-01 23:28N 53°32' E 010°00'0 0.0
2018-Sep-01 23:01N 53°32' E 010°00'0 0.0
2018-Sep-01 22:58N 53°32' E 010°00'0 0.0
2018-Sep-01 22:28N 53°32' E 010°00'0 0.0
2018-Sep-01 22:01N 53°32' E 010°00'0 0.0
2018-Sep-01 21:58N 53°32' E 010°00'0 0.0
2018-Sep-01 21:28N 53°32' E 010°00'0 0.0
2018-Sep-01 21:01N 53°32' E 010°00'0 0.0
2018-Sep-01 20:58N 53°32' E 010°00'0 0.0
2018-Sep-01 20:25N 53°32' E 010°00'0 0.0
2018-Sep-01 20:01N 53°32' E 010°00'0 0.0
2018-Sep-01 19:58N 53°32' E 010°00'0 0.0
2018-Sep-01 19:28N 53°32' E 010°00'0 0.0
2018-Sep-01 19:01N 53°32' E 010°00'0 0.1
2018-Sep-01 18:58N 53°32' E 010°00'0 0.0
2018-Sep-01 18:28N 53°32' E 010°00'0 0.0
2018-Sep-01 18:01N 53°32' E 010°00'0 0.0
2018-Sep-01 17:58N 53°32' E 010°00'0 0.0
2018-Sep-01 17:28N 53°32' E 010°00'0 0.0
2018-Sep-01 17:01N 53°32' E 010°00'0 0.0
2018-Sep-01 16:58N 53°32' E 010°00'0 0.0
2018-Sep-01 16:28N 53°32' E 010°00'0 0.0
2018-Sep-01 16:01N 53°32' E 010°00'0 0.0
2018-Sep-01 15:58N 53°32' E 010°00'0 0.0
2018-Sep-01 15:27N 53°32' E 010°00'0 0.0
2018-Sep-01 14:58N 53°32' E 010°00'0 0.0
2018-Sep-01 14:28N 53°32' E 010°00'0 0.0
2018-Sep-01 13:58N 53°32' E 010°00'0 0.0
2018-Sep-01 13:28N 53°32' E 010°00'0 0.0
2018-Sep-01 13:01N 53°32' E 010°00'0 0.0
2018-Sep-01 12:58N 53°32' E 010°00'0 0.0
2018-Sep-01 12:28N 53°32' E 010°00'0 0.0
2018-Sep-01 12:01N 53°32' E 010°00'0 0.0
2018-Sep-01 11:58N 53°32' E 010°00'0 0.0
2018-Sep-01 11:28N 53°32' E 010°00'0 0.0
2018-Sep-01 11:01N 53°32' E 010°00'0 0.1
2018-Sep-01 10:58N 53°32' E 010°00'0 0.0
2018-Sep-01 10:28N 53°32' E 010°00'0 0.0
2018-Sep-01 10:01N 53°32' E 010°00'0 0.0
2018-Sep-01 09:58N 53°32' E 010°00'0 0.0
2018-Sep-01 09:28N 53°32' E 010°00'0 0.0
2018-Sep-01 09:01N 53°32' E 010°00'0 0.0
2018-Sep-01 08:58N 53°32' E 010°00'0 0.0
2018-Sep-01 08:28N 53°32' E 010°00'0 0.0
2018-Sep-01 08:01N 53°32' E 010°00'0 0.0
2018-Sep-01 07:58N 53°32' E 010°00'0 0.0
2018-Sep-01 07:28N 53°32' E 010°00'0 0.0
2018-Sep-01 07:01N 53°32' E 010°00'0 0.0
2018-Sep-01 06:58N 53°32' E 010°00'0 0.0
2018-Sep-01 06:28N 53°32' E 010°00'0 0.0
2018-Sep-01 06:01N 53°32' E 010°00'0 0.0
2018-Sep-01 05:58N 53°32' E 010°00'0 0.0
2018-Sep-01 05:28N 53°32' E 010°00'0 0.0
2018-Sep-01 05:01N 53°32' E 010°00'0 0.1
2018-Sep-01 04:58N 53°32' E 010°00'0 0.0
2018-Sep-01 04:28N 53°32' E 010°00'0 0.0
2018-Sep-01 04:01N 53°32' E 010°00'0 0.1
2018-Sep-01 03:58N 53°32' E 010°00'0 0.0
2018-Sep-01 03:28N 53°32' E 010°00'0 0.0
2018-Sep-01 03:01N 53°32' E 010°00'0 0.0
2018-Sep-01 02:58N 53°32' E 010°00'0 0.0
2018-Sep-01 02:28N 53°32' E 010°00'0 0.0
2018-Sep-01 02:01N 53°32' E 010°00'0 0.0
2018-Sep-01 01:58N 53°32' E 010°00'0 0.0
2018-Sep-01 01:28N 53°32' E 010°00'0 0.0
2018-Sep-01 01:01N 53°32' E 010°00'0 0.1
2018-Sep-01 00:58N 53°32' E 010°00'0 0.0
2018-Sep-01 00:28N 53°32' E 010°00'0 0.0
2018-Sep-01 00:01N 53°32' E 010°00'0 0.1
2018-Aug-31 23:58N 53°32' E 010°00'0 0.0
2018-Aug-31 23:28N 53°32' E 010°00'0 0.0
2018-Aug-31 23:01N 53°32' E 010°00'0 0.0
2018-Aug-31 22:58N 53°32' E 010°00'0 0.0
2018-Aug-31 22:28N 53°32' E 010°00'0 0.0
2018-Aug-31 22:01N 53°32' E 010°00'0 0.1
2018-Aug-31 21:58N 53°32' E 010°00'0 0.0
2018-Aug-31 21:28N 53°32' E 010°00'0 0.0
2018-Aug-31 21:01N 53°32' E 010°00'0 0.0
2018-Aug-31 20:58N 53°32' E 010°00'0 0.0
2018-Aug-31 20:28N 53°32' E 010°00'0 0.0
2018-Aug-31 20:01N 53°32' E 010°00'0 0.1
2018-Aug-31 19:58N 53°32' E 010°00'0 0.0
2018-Aug-31 19:28N 53°32' E 010°00'0 0.0
2018-Aug-31 19:01N 53°32' E 010°00'0 0.0
2018-Aug-31 18:58N 53°32' E 010°00'0 0.0
2018-Aug-31 18:28N 53°32' E 010°00'0 0.0
2018-Aug-31 18:01N 53°32' E 010°00'0 0.0
2018-Aug-31 17:58N 53°32' E 010°00'0 0.0
2018-Aug-31 17:28N 53°32' E 010°00'0 0.0
2018-Aug-31 17:01N 53°32' E 010°00'0 0.0
2018-Aug-31 16:58N 53°32' E 010°00'0 0.0
2018-Aug-31 16:28N 53°32' E 010°00'0 0.0
2018-Aug-31 16:01N 53°32' E 010°00'0 0.1
2018-Aug-31 15:58N 53°32' E 010°00'0 0.0
2018-Aug-31 15:01N 53°32' E 010°00'0 0.1
2018-Aug-31 14:58N 53°32' E 010°00'0 0.0
2018-Aug-31 14:28N 53°32' E 010°00'0 0.0
2018-Aug-31 13:58N 53°32' E 010°00'0 0.0
2018-Aug-31 13:28N 53°32' E 010°00'0 0.0
2018-Aug-31 13:01N 53°32' E 010°00'0 0.0
2018-Aug-31 12:58N 53°32' E 010°00'0 0.0
2018-Aug-31 12:28N 53°32' E 010°00'0 0.0
2018-Aug-31 12:02N 53°32' E 010°00'0 0.1
2018-Aug-31 11:58N 53°32' E 010°00'0 0.0
2018-Aug-31 11:29N 53°32' E 010°00'0 0.0
2018-Aug-31 11:03N 53°32' E 010°00'0 0.1
2018-Aug-31 11:00N 53°32' E 010°00'0 0.0
2018-Aug-31 10:29N 53°32' E 010°00'0 0.0
2018-Aug-31 10:02N 53°32' E 010°00'0 0.0
2018-Aug-31 09:59N 53°32' E 010°00'0 0.0
2018-Aug-31 09:28N 53°32' E 010°00'0 0.0
2018-Aug-31 09:03N 53°32' E 010°00'0 0.0
2018-Aug-31 08:58N 53°32' E 010°00'0 0.0
2018-Aug-31 08:29N 53°32' E 010°00'0 0.0
2018-Aug-31 08:03N 53°32' E 010°00'0 0.0
2018-Aug-31 07:58N 53°32' E 010°00'0 0.0
2018-Aug-31 07:28N 53°32' E 010°00'0 0.0
2018-Aug-31 07:01N 53°32' E 010°00'0 0.0
2018-Aug-31 07:00N 53°32' E 010°00'0 0.0
2018-Aug-31 06:28N 53°32' E 010°00'0 0.0
2018-Aug-31 06:03N 53°32' E 010°00'0 0.0
2018-Aug-31 05:59N 53°32' E 010°00'0 0.0
2018-Aug-31 05:28N 53°32' E 010°00'0 0.0
2018-Aug-31 05:01N 53°32' E 010°00'0 0.0
2018-Aug-31 04:58N 53°32' E 010°00'0 0.0
2018-Aug-31 04:28N 53°32' E 010°00'0 0.0
2018-Aug-31 04:02N 53°32' E 010°00'0 0.0
2018-Aug-31 03:58N 53°32' E 010°00'0 0.0
2018-Aug-31 03:28N 53°32' E 010°00'0 0.0
2018-Aug-31 03:01N 53°32' E 010°00'0 0.0
2018-Aug-31 03:00N 53°32' E 010°00'0 0.0
2018-Aug-31 02:29N 53°32' E 010°00'0 0.0
2018-Aug-31 02:01N 53°32' E 010°00'0 0.1
2018-Aug-31 01:58N 53°32' E 010°00'0 0.0
2018-Aug-31 01:28N 53°32' E 010°00'0 0.0
2018-Aug-31 01:03N 53°32' E 010°00'0 0.0
2018-Aug-31 00:59N 53°32' E 010°00'0 0.0
2018-Aug-31 00:28N 53°32' E 010°00'0 0.0
2018-Aug-31 00:01N 53°32' E 010°00'0 0.1
2018-Aug-30 23:58N 53°32' E 010°00'0 0.0
2018-Aug-30 23:28N 53°32' E 010°00'0 0.0
2018-Aug-30 23:03N 53°32' E 010°00'0 0.0
2018-Aug-30 23:00N 53°32' E 010°00'0 0.0
2018-Aug-30 22:28N 53°32' E 010°00'0 0.0
2018-Aug-30 22:01N 53°32' E 010°00'0 0.0
2018-Aug-30 21:58N 53°32' E 010°00'0 0.0
2018-Aug-30 21:27N 53°32' E 010°00'0 0.0
2018-Aug-30 21:01N 53°32' E 010°00'0 0.3
2018-Aug-30 21:00N 53°32' E 010°00'0 0.0
2018-Aug-30 20:30N 53°32' E 010°00'0 0.0
2018-Aug-30 19:30N 53°32' E 010°00'0 0.0
2018-Aug-30 19:02N 53°32' E 010°00'0 0.0
2018-Aug-30 18:59N 53°32' E 010°00'0 0.0
2018-Aug-30 18:28N 53°32' E 010°00'0 0.0
2018-Aug-30 18:03N 53°32' E 010°00'0 0.0
2018-Aug-30 17:59N 53°32' E 010°00'0 0.0
2018-Aug-30 17:28N 53°32' E 010°00'0 0.0
2018-Aug-30 17:01N 53°32' E 010°00'0 0.0
2018-Aug-30 16:58N 53°32' E 010°00'0 0.0
2018-Aug-30 16:28N 53°32' E 010°00'0 0.0
2018-Aug-30 16:01N 53°32' E 010°00'0 0.1
2018-Aug-30 15:58N 53°32' E 010°00'0 0.0
2018-Aug-30 15:28N 53°32' E 010°00'0 0.0
2018-Aug-30 15:01N 53°32' E 010°00'0 0.0
2018-Aug-30 14:58N 53°32' E 010°00'0 0.0
2018-Aug-30 14:28N 53°32' E 010°00'0 0.0
2018-Aug-30 13:58N 53°32' E 010°00'0 0.0
2018-Aug-30 13:28N 53°32' E 010°00'0 0.0
2018-Aug-30 13:01N 53°32' E 010°00'0 0.0
2018-Aug-30 12:55N 53°32' E 010°00'0 0.0
2018-Aug-30 12:28N 53°32' E 010°00'0 0.0
2018-Aug-30 12:01N 53°32' E 010°00'0 0.0
2018-Aug-30 11:58N 53°32' E 010°00'0 0.0
2018-Aug-30 11:28N 53°32' E 010°00'0 0.0
2018-Aug-30 11:01N 53°32' E 010°00'0 0.0
2018-Aug-30 10:58N 53°32' E 010°00'0 0.0
2018-Aug-30 10:28N 53°32' E 010°00'0 0.0
2018-Aug-30 10:01N 53°32' E 010°00'0 0.0
2018-Aug-30 09:58N 53°32' E 010°00'0 0.0
2018-Aug-30 09:28N 53°32' E 010°00'0 0.0
2018-Aug-30 09:01N 53°32' E 010°00'0 0.0
2018-Aug-30 08:58N 53°32' E 010°00'0 0.0
2018-Aug-30 08:28N 53°32' E 010°00'0 0.0
2018-Aug-30 08:01N 53°32' E 010°00'0 0.1
2018-Aug-30 07:58N 53°32' E 010°00'1 2.5
2018-Aug-30 07:31N 53°32' E 009°59'0 0.9
2018-Aug-30 07:03N 53°33' E 009°59'0 0.0
2018-Aug-30 07:00N 53°33' E 009°59'0 0.0
2018-Aug-30 06:27N 53°33' E 009°59'0 0.0
2018-Aug-30 06:03N 53°33' E 009°59'0 0.0
2018-Aug-30 05:57N 53°33' E 009°59'0 0.0
2018-Aug-30 05:30N 53°33' E 009°59'0 0.0
2018-Aug-30 05:03N 53°33' E 009°59'0 0.0
2018-Aug-30 05:00N 53°33' E 009°59'0 0.0
2018-Aug-30 04:27N 53°33' E 009°59'0 0.0
2018-Aug-30 04:03N 53°33' E 009°59'0 0.0
2018-Aug-30 04:00N 53°33' E 009°59'0 0.0
2018-Aug-30 03:30N 53°33' E 009°59'0 0.0
2018-Aug-30 03:03N 53°33' E 009°59'0 0.0
2018-Aug-30 03:00N 53°33' E 009°59'0 0.0
2018-Aug-30 02:30N 53°33' E 009°59'0 0.0
2018-Aug-30 02:03N 53°33' E 009°59'0 0.0
2018-Aug-30 02:00N 53°33' E 009°59'0 0.0
2018-Aug-30 01:30N 53°33' E 009°59'0 0.0
2018-Aug-30 01:03N 53°33' E 009°59'0 0.0
2018-Aug-30 01:00N 53°33' E 009°59'0 0.0
2018-Aug-30 00:30N 53°33' E 009°59'0 0.0
2018-Aug-30 00:03N 53°33' E 009°59'0 0.1
2018-Aug-30 00:00N 53°33' E 009°59'0 0.0
2018-Aug-29 23:30N 53°33' E 009°59'0 0.0
2018-Aug-29 23:03N 53°33' E 009°59'0 0.0
2018-Aug-29 23:00N 53°33' E 009°59'0 0.0
2018-Aug-29 22:30N 53°33' E 009°59'0 0.0
2018-Aug-29 22:03N 53°33' E 009°59'0 0.1
2018-Aug-29 22:00N 53°33' E 009°59'0 0.0
2018-Aug-29 21:25N 53°33' E 009°59'0 0.0
2018-Aug-29 21:01N 53°33' E 009°59'0 0.0
2018-Aug-29 20:58N 53°33' E 009°59'0 0.0
2018-Aug-29 20:28N 53°33' E 009°59'0 0.0
2018-Aug-29 20:01N 53°33' E 009°59'0 0.1
2018-Aug-29 19:58N 53°33' E 009°59'0 0.0
2018-Aug-29 19:28N 53°33' E 009°59'0 0.0
2018-Aug-29 19:01N 53°33' E 009°59'0 0.1
2018-Aug-29 18:58N 53°33' E 009°59'0 0.1
2018-Aug-29 18:28N 53°33' E 009°59'0 0.1
2018-Aug-29 18:01N 53°33' E 009°59'0 0.1
2018-Aug-29 17:58N 53°33' E 009°59'0 0.0
2018-Aug-29 17:22N 53°33' E 009°59'0 0.0
2018-Aug-29 17:01N 53°33' E 009°59'0 0.0
2018-Aug-29 16:58N 53°33' E 009°59'0 0.0
2018-Aug-29 16:25N 53°33' E 009°59'0 0.0
2018-Aug-29 16:01N 53°33' E 009°59'0 0.0
2018-Aug-29 15:58N 53°33' E 009°59'0 0.0
2018-Aug-29 15:28N 53°33' E 009°59'0 0.0
2018-Aug-29 15:01N 53°33' E 009°59'0 0.0
2018-Aug-29 14:58N 53°33' E 009°59'0 0.0
2018-Aug-29 13:58N 53°33' E 009°59'0 0.0
2018-Aug-29 13:28N 53°33' E 009°59'0 0.0
2018-Aug-29 13:01N 53°33' E 009°59'0 0.0
2018-Aug-29 12:58N 53°33' E 009°59'0 0.0
2018-Aug-29 12:28N 53°33' E 009°59'0 0.0
2018-Aug-29 12:01N 53°33' E 009°59'0 0.0
2018-Aug-29 11:58N 53°33' E 009°59'0 0.0
2018-Aug-29 11:28N 53°33' E 009°59'0 0.0
2018-Aug-29 11:01N 53°33' E 009°59'0 0.0
2018-Aug-29 10:58N 53°33' E 009°59'0 0.1
2018-Aug-29 10:28N 53°33' E 009°59'0 0.1
2018-Aug-29 10:01N 53°33' E 009°59'0 0.0
2018-Aug-29 09:55N 53°33' E 009°59'0 0.0
2018-Aug-29 09:28N 53°33' E 009°59'0 0.0
2018-Aug-29 09:01N 53°33' E 009°59'0 0.0
2018-Aug-29 08:55N 53°33' E 009°59'0 0.0
2018-Aug-29 08:28N 53°33' E 009°59'0 0.0
2018-Aug-29 08:01N 53°33' E 009°59'0 0.0
2018-Aug-29 07:58N 53°33' E 009°59'0 0.0
2018-Aug-29 07:28N 53°33' E 009°59'0 0.0
2018-Aug-29 07:01N 53°33' E 009°59'0 0.1
2018-Aug-29 06:58N 53°33' E 009°59'0 0.0
2018-Aug-29 06:28N 53°33' E 009°59'0 0.0
2018-Aug-29 06:01N 53°33' E 009°59'0 0.0
2018-Aug-29 05:58N 53°33' E 009°59'0 0.0
2018-Aug-29 05:28N 53°33' E 009°59'0 0.0
2018-Aug-29 05:01N 53°33' E 009°59'0 0.1
2018-Aug-29 04:58N 53°33' E 009°59'0 0.0
2018-Aug-29 04:28N 53°33' E 009°59'0 0.0
2018-Aug-29 04:01N 53°33' E 009°59'0 0.0
2018-Aug-29 03:58N 53°33' E 009°59'0 0.0
2018-Aug-29 03:28N 53°33' E 009°59'0 0.0
2018-Aug-29 03:01N 53°33' E 009°59'0 0.0
2018-Aug-29 02:58N 53°33' E 009°59'0 0.0
2018-Aug-29 02:28N 53°33' E 009°59'0 0.0
2018-Aug-29 02:01N 53°33' E 009°59'0 0.0
2018-Aug-29 01:58N 53°33' E 009°59'0 0.0
2018-Aug-29 01:28N 53°33' E 009°59'0 0.0
2018-Aug-29 01:01N 53°33' E 009°59'0 0.0
2018-Aug-29 00:58N 53°33' E 009°59'0 0.0
2018-Aug-29 00:28N 53°33' E 009°59'0 0.0
2018-Aug-29 00:01N 53°33' E 009°59'0 0.1
2018-Aug-28 23:58N 53°33' E 009°59'0 0.0
2018-Aug-28 23:28N 53°33' E 009°59'0 0.0
2018-Aug-28 23:01N 53°33' E 009°59'0 0.1
2018-Aug-28 22:58N 53°33' E 009°59'0 0.0
2018-Aug-28 22:25N 53°33' E 009°59'0 0.0
2018-Aug-28 22:01N 53°33' E 009°59'0 0.0
2018-Aug-28 21:58N 53°33' E 009°59'0 0.0
2018-Aug-28 21:29N 53°33' E 009°59'0 0.0
2018-Aug-28 21:02N 53°33' E 009°59'0 0.0
2018-Aug-28 20:59N 53°33' E 009°59'0 0.0
2018-Aug-28 20:29N 53°33' E 009°59'0 0.0
2018-Aug-28 20:02N 53°33' E 009°59'0 0.0
2018-Aug-28 19:59N 53°33' E 009°59'0 0.0
2018-Aug-28 19:29N 53°33' E 009°59'0 0.0
2018-Aug-28 19:02N 53°33' E 009°59'0 0.0
2018-Aug-28 18:59N 53°33' E 009°59'0 0.0
2018-Aug-28 18:29N 53°33' E 009°59'0 0.0
2018-Aug-28 18:02N 53°33' E 009°59'0 0.1
2018-Aug-28 17:59N 53°33' E 009°59'0 0.0
2018-Aug-28 17:29N 53°33' E 009°59'0 0.0
2018-Aug-28 17:02N 53°33' E 009°59'0 0.0
2018-Aug-28 16:59N 53°33' E 009°59'0 0.0
2018-Aug-28 16:29N 53°33' E 009°59'0 0.0
2018-Aug-28 16:02N 53°33' E 009°59'0 0.1
2018-Aug-28 15:59N 53°33' E 009°59'0 0.0
2018-Aug-28 15:29N 53°33' E 009°59'0 0.0
2018-Aug-28 15:02N 53°33' E 009°59'0 0.0
2018-Aug-28 14:59N 53°33' E 009°59'0 0.0
2018-Aug-28 14:29N 53°33' E 009°59'0 0.0
2018-Aug-28 13:29N 53°33' E 009°59'0 0.0
2018-Aug-28 13:02N 53°33' E 009°59'0 0.0
2018-Aug-28 12:59N 53°33' E 009°59'0 0.0
2018-Aug-28 12:29N 53°33' E 009°59'0 0.0
2018-Aug-28 12:02N 53°33' E 009°59'0 0.0
2018-Aug-28 11:59N 53°33' E 009°59'0 0.0
2018-Aug-28 11:29N 53°33' E 009°59'0 0.0
2018-Aug-28 11:02N 53°33' E 009°59'0 0.0
2018-Aug-28 10:59N 53°33' E 009°59'0 0.0
2018-Aug-28 10:29N 53°33' E 009°59'0 0.0
2018-Aug-28 10:02N 53°33' E 009°59'0 0.0
2018-Aug-28 09:59N 53°33' E 009°59'0 0.0
2018-Aug-28 09:29N 53°33' E 009°59'0 0.0
2018-Aug-28 09:02N 53°33' E 009°59'0 0.1
2018-Aug-28 08:56N 53°33' E 009°59'0 0.0
2018-Aug-28 08:29N 53°33' E 009°59'0 0.0
2018-Aug-28 08:03N 53°33' E 009°59'0 0.0
2018-Aug-28 08:01N 53°33' E 009°59'0 0.0
2018-Aug-28 07:31N 53°33' E 009°59'0 0.0
2018-Aug-28 07:04N 53°33' E 009°59'0 0.0
2018-Aug-28 07:01N 53°33' E 009°59'0 0.0
2018-Aug-28 06:30N 53°33' E 009°59'0 0.0
2018-Aug-28 06:03N 53°33' E 009°59'0 0.0
2018-Aug-28 06:01N 53°33' E 009°59'0 0.0
2018-Aug-28 05:30N 53°33' E 009°59'0 0.0
2018-Aug-28 05:04N 53°33' E 009°59'0 0.0
2018-Aug-28 05:01N 53°33' E 009°59'0 0.0
2018-Aug-28 04:31N 53°33' E 009°59'0 0.0
2018-Aug-28 04:03N 53°33' E 009°59'0 0.0
2018-Aug-28 04:01N 53°33' E 009°59'0 0.0
2018-Aug-28 03:31N 53°33' E 009°59'0 0.0
2018-Aug-28 03:04N 53°33' E 009°59'0 0.1
2018-Aug-28 03:01N 53°33' E 009°59'0 0.0
2018-Aug-28 02:31N 53°33' E 009°59'0 0.0
2018-Aug-28 02:04N 53°33' E 009°59'0 0.1
2018-Aug-28 02:00N 53°33' E 009°59'0 0.0
2018-Aug-28 01:31N 53°33' E 009°59'0 0.0
2018-Aug-28 01:03N 53°33' E 009°59'0 0.0
2018-Aug-28 01:00N 53°33' E 009°59'0 0.0
2018-Aug-28 00:31N 53°33' E 009°59'0 0.0
2018-Aug-28 00:03N 53°33' E 009°59'0 0.1
2018-Aug-28 00:01N 53°33' E 009°59'0 0.0
2018-Aug-27 23:31N 53°33' E 009°59'0 0.0
2018-Aug-27 23:04N 53°33' E 009°59'0 0.0
2018-Aug-27 23:01N 53°33' E 009°59'0 0.0
2018-Aug-27 22:31N 53°33' E 009°59'0 0.0
2018-Aug-27 22:04N 53°33' E 009°59'0 0.0
2018-Aug-27 22:01N 53°33' E 009°59'0 0.0
2018-Aug-27 21:30N 53°33' E 009°59'0 0.0
2018-Aug-27 21:04N 53°33' E 009°59'0 0.0
2018-Aug-27 21:00N 53°33' E 009°59'0 0.0
2018-Aug-27 20:30N 53°33' E 009°59'0 0.0
2018-Aug-27 20:03N 53°33' E 009°59'0 0.1
2018-Aug-27 20:01N 53°33' E 009°59'0 0.0
2018-Aug-27 19:30N 53°33' E 009°59'0 0.0
2018-Aug-27 19:04N 53°33' E 009°59'0 0.1
2018-Aug-27 19:01N 53°33' E 009°59'0 0.0
2018-Aug-27 18:30N 53°33' E 009°59'0 0.0
2018-Aug-27 18:04N 53°33' E 009°59'0 0.0
2018-Aug-27 18:01N 53°33' E 009°59'0 0.0
2018-Aug-27 17:31N 53°33' E 009°59'0 0.0
2018-Aug-27 17:04N 53°33' E 009°59'0 0.0
2018-Aug-27 17:01N 53°33' E 009°59'0 0.0
2018-Aug-27 16:31N 53°33' E 009°59'0 0.0
2018-Aug-27 16:03N 53°33' E 009°59'0 0.1
2018-Aug-27 16:01N 53°33' E 009°59'0 0.0
2018-Aug-27 15:30N 53°33' E 009°59'0 0.8
2018-Aug-27 15:04N 53°32' E 009°59'2 3.7
2018-Aug-27 14:31N 53°32' E 009°55'5 4.6
2018-Aug-27 13:31N 53°33' E 009°48'2 4.7
2018-Aug-27 13:03N 53°34' E 009°44'0 4.1
2018-Aug-27 13:01N 53°34' E 009°44'2 4.8
2018-Aug-27 12:31N 53°34' E 009°40'1 1.6
2018-Aug-27 12:03N 53°34' E 009°39'0 3.2
2018-Aug-27 12:00N 53°34' E 009°39'2 3.6
2018-Aug-27 11:31N 53°34' E 009°42'1 3.3
2018-Aug-27 11:04N 53°34' E 009°45'0 3.8
2018-Aug-27 11:01N 53°34' E 009°45'2 4.3
2018-Aug-27 10:31N 53°33' E 009°49'2 5.5
2018-Aug-27 10:04N 53°33' E 009°52'0 5.3
2018-Aug-27 10:01N 53°33' E 009°53'3 5.4
2018-Aug-27 09:31N 53°33' E 009°58'1 2.6
2018-Aug-27 09:04N 53°33' E 009°59'  

Dump ship's entire track history